Welcome to Northern Hawkes Bay. New Zealand.
PWS Header
      nz Flag



Hit Counter


W3C Valid W3C Valid logo


    Wairoa

Select any of the Stations below to visit their websites.










Historic Data from Weather Underground
Select the location of interest below. Wairoa is the default. Please have patience, this Data is slow to load in.
Northern Hawkes Bay Historical Data
Daily Summary for June 7, 2017 Units:  Metric    English   Both
« Previous Day
Next Day »
Daily Weekly Monthly Yearly Custom
  High: Low: Average:
Temperature: 19.6 °C 3.4 °C 9.7 °C
Dew Point: 8.9 °C 3.3 °C 6 °C
Humidity: 99% 47% 81%
Wind Speed: 27.0km/h 0.0km/h 6.8km/h
Wind Gust: 35.6km/h - -
Wind- - WNW
Pressure: 1018.5 hPa 1014.4 hPa -
Precipitation: 0.0 mm    
Historical Graphs
 
 
Tabular Data for June 7, 2017
Time Temperature Dew Point Pressure Wind Wind Speed Wind Gust Humidity Rainfall Rate (Hourly) solar
00:10 5.6 °C 5.4 °C 1015.5 hPa NW 5.0 km/h 8.7 km/h 99% 0.0 mm 0 W/m2
00:15 5.6 °C 5.4 °C 1015.5 hPa NNW 5.0 km/h 8.7 km/h 99% 0.0 mm 0 W/m2
00:20 5.6 °C 5.4 °C 1015.5 hPa NW 6.1 km/h 8.7 km/h 99% 0.0 mm 0 W/m2
00:25 5.6 °C 5.4 °C 1015.5 hPa NW 5.0 km/h 8.7 km/h 99% 0.0 mm 0 W/m2
00:30 5.6 °C 5.4 °C 1015.1 hPa NW 5.0 km/h 8.7 km/h 99% 0.0 mm 0 W/m2
00:35 5.6 °C 5.4 °C 1015.1 hPa NW 6.1 km/h 8.7 km/h 99% 0.0 mm 0 W/m2
00:40 5.6 °C 5.4 °C 1015.5 hPa NW 7.2 km/h 9.7 km/h 99% 0.0 mm 0 W/m2
00:45 5.6 °C 5.4 °C 1015.5 hPa NW 5.0 km/h 9.7 km/h 99% 0.0 mm 0 W/m2
00:50 5.6 °C 5.4 °C 1015.5 hPa NW 5.0 km/h 9.7 km/h 99% 0.0 mm 0 W/m2
00:51 5.5 °C 5.3 °C 1015.5 hPa NW 6.1 km/h 8.7 km/h 99% 0.0 mm 0 W/m2
00:56 5.5 °C 5.3 °C 1015.5 hPa NW 5.0 km/h 8.7 km/h 99% 0.0 mm 0 W/m2
01:01 5.5 °C 5.3 °C 1015.5 hPa NW 6.1 km/h 8.7 km/h 99% 0.0 mm 0 W/m2
01:06 5.4 °C 5.3 °C 1015.5 hPa NW 6.1 km/h 9.7 km/h 99% 0.0 mm 0 W/m2
01:11 5.4 °C 5.3 °C 1015.1 hPa NW 6.1 km/h 9.7 km/h 99% 0.0 mm 0 W/m2
01:16 5.4 °C 5.3 °C 1015.5 hPa NW 5.0 km/h 9.7 km/h 99% 0.0 mm 0 W/m2
01:21 5.4 °C 5.3 °C 1015.1 hPa NW 6.1 km/h 9.7 km/h 99% 0.0 mm 0 W/m2
01:26 5.4 °C 5.3 °C 1015.1 hPa NNW 5.0 km/h 9.7 km/h 99% 0.0 mm 0 W/m2
01:31 5.3 °C 5.2 °C 1015.5 hPa NNW 3.5 km/h 9.7 km/h 99% 0.0 mm 0 W/m2
01:36 5.2 °C 5.1 °C 1015.1 hPa NNW 6.1 km/h 8.7 km/h 99% 0.0 mm 0 W/m2
01:41 5.2 °C 5.1 °C 1015.1 hPa NW 5.0 km/h 8.7 km/h 99% 0.0 mm 0 W/m2
01:46 5.1 °C 4.9 °C 1015.1 hPa NW 6.1 km/h 8.7 km/h 99% 0.0 mm 0 W/m2
01:51 5.1 °C 4.9 °C 1015.1 hPa NW 5.0 km/h 9.7 km/h 99% 0.0 mm 0 W/m2
01:56 5.1 °C 4.9 °C 1015.1 hPa NW 5.0 km/h 9.7 km/h 99% 0.0 mm 0 W/m2
02:01 5.0 °C 4.8 °C 1015.1 hPa NW 5.0 km/h 12.2 km/h 99% 0.0 mm 0 W/m2
02:06 4.9 °C 4.8 °C 1015.1 hPa NNW 5.0 km/h 12.2 km/h 99% 0.0 mm 0 W/m2
02:11 4.8 °C 4.7 °C 1015.5 hPa NNW 6.1 km/h 8.7 km/h 99% 0.0 mm 0 W/m2
02:16 4.7 °C 4.6 °C 1015.1 hPa NW 6.1 km/h 8.7 km/h 99% 0.0 mm 0 W/m2
02:21 4.7 °C 4.6 °C 1015.1 hPa NW 7.2 km/h 11.1 km/h 99% 0.0 mm 0 W/m2
02:26 4.7 °C 4.6 °C 1015.1 hPa NNW 7.2 km/h 11.1 km/h 99% 0.0 mm 0 W/m2
02:31 4.7 °C 4.6 °C 1015.1 hPa NNW 5.0 km/h 11.1 km/h 99% 0.0 mm 0 W/m2
02:36 4.6 °C 4.4 °C 1015.1 hPa NNW 6.1 km/h 11.1 km/h 99% 0.0 mm 0 W/m2
02:41 4.6 °C 4.4 °C 1015.1 hPa NW 6.1 km/h 13.4 km/h 99% 0.0 mm 0 W/m2
02:46 4.6 °C 4.4 °C 1014.8 hPa NW 7.2 km/h 13.4 km/h 99% 0.0 mm 0 W/m2
02:51 4.7 °C 4.6 °C 1014.8 hPa NW 8.7 km/h 11.1 km/h 99% 0.0 mm 0 W/m2
02:56 4.7 °C 4.6 °C 1014.8 hPa NW 8.7 km/h 12.2 km/h 99% 0.0 mm 0 W/m2
03:01 4.7 °C 4.6 °C 1015.1 hPa NW 7.2 km/h 12.2 km/h 99% 0.0 mm 0 W/m2
03:06 4.7 °C 4.6 °C 1014.8 hPa NNW 8.7 km/h 11.1 km/h 99% 0.0 mm 0 W/m2
03:11 4.7 °C 4.6 °C 1014.8 hPa NW 7.2 km/h 12.2 km/h 99% 0.0 mm 0 W/m2
03:16 4.7 °C 4.6 °C 1014.8 hPa NW 6.1 km/h 12.2 km/h 99% 0.0 mm 0 W/m2
03:21 4.7 °C 4.6 °C 1014.8 hPa NW 6.1 km/h 12.2 km/h 99% 0.0 mm 0 W/m2
03:26 4.7 °C 4.6 °C 1014.8 hPa NW 6.1 km/h 17.2 km/h 99% 0.0 mm 0 W/m2
03:45 4.6 °C 4.4 °C 1014.4 hPa NW 6.1 km/h 12.2 km/h 99% 0.0 mm 0 W/m2
03:50 4.6 °C 4.4 °C 1014.8 hPa NNW 5.0 km/h 12.2 km/h 99% 0.0 mm 0 W/m2
03:55 4.6 °C 4.4 °C 1014.4 hPa NNW 8.7 km/h 13.4 km/h 99% 0.0 mm 0 W/m2
04:00 4.6 °C 4.4 °C 1014.4 hPa NW 11.1 km/h 15.8 km/h 99% 0.0 mm 0 W/m2
04:05 4.5 °C 4.3 °C 1014.4 hPa NNW 11.1 km/h 15.8 km/h 99% 0.0 mm 0 W/m2
04:10 4.5 °C 4.3 °C 1014.8 hPa NNW 8.7 km/h 13.4 km/h 99% 0.0 mm 0 W/m2
04:15 4.5 °C 4.3 °C 1014.4 hPa NNW 8.7 km/h 13.4 km/h 99% 0.0 mm 0 W/m2
04:20 4.5 °C 4.3 °C 1014.4 hPa NNW 11.1 km/h 17.2 km/h 99% 0.0 mm 0 W/m2
04:25 4.6 °C 4.4 °C 1014.4 hPa NNW 8.7 km/h 17.2 km/h 99% 0.0 mm 0 W/m2
04:30 4.6 °C 4.4 °C 1014.4 hPa NNW 7.2 km/h 17.2 km/h 99% 0.0 mm 0 W/m2
04:36 4.6 °C 4.4 °C 1014.4 hPa North 8.7 km/h 14.8 km/h 99% 0.0 mm 0 W/m2
04:41 4.6 °C 4.4 °C 1014.4 hPa NNW 5.0 km/h 13.4 km/h 99% 0.0 mm 0 W/m2
04:43 4.5 °C 4.3 °C 1014.4 hPa NNW 7.2 km/h 13.4 km/h 99% 0.0 mm 0 W/m2
04:48 4.4 °C 4.3 °C 1014.4 hPa NNW 8.7 km/h 11.1 km/h 99% 0.0 mm 0 W/m2
04:53 4.4 °C 4.3 °C 1014.8 hPa NNW 6.1 km/h 11.1 km/h 99% 0.0 mm 0 W/m2
04:58 4.4 °C 4.3 °C 1014.8 hPa NW 7.2 km/h 9.7 km/h 99% 0.0 mm 0 W/m2
05:03 4.4 °C 4.3 °C 1014.8 hPa NW 5.0 km/h 9.7 km/h 99% 0.0 mm 0 W/m2
05:08 4.3 °C 4.2 °C 1014.4 hPa NW 5.0 km/h 9.7 km/h 99% 0.0 mm 0 W/m2
05:13 4.2 °C 4.1 °C 1014.8 hPa NW 6.1 km/h 8.7 km/h 99% 0.0 mm 0 W/m2
05:18 4.2 °C 4.1 °C 1014.8 hPa NW 5.0 km/h 9.7 km/h 99% 0.0 mm 0 W/m2
05:23 4.1 °C 3.9 °C 1014.4 hPa NW 6.1 km/h 9.7 km/h 99% 0.0 mm 0 W/m2
05:28 4.1 °C 3.9 °C 1014.8 hPa NNW 5.0 km/h 9.7 km/h 99% 0.0 mm 0 W/m2
05:33 4.2 °C 4.1 °C 1014.8 hPa NW 5.0 km/h 12.2 km/h 99% 0.0 mm 0 W/m2
05:38 4.1 °C 3.9 °C 1014.8 hPa NW 7.2 km/h 12.2 km/h 99% 0.0 mm 0 W/m2
05:43 4.1 °C 3.9 °C 1014.8 hPa NNW 7.2 km/h 12.2 km/h 99% 0.0 mm 0 W/m2
05:48 4.0 °C 3.8 °C 1014.8 hPa NNW 7.2 km/h 12.2 km/h 99% 0.0 mm 0 W/m2
05:53 4.0 °C 3.8 °C 1014.8 hPa NNW 5.0 km/h 12.2 km/h 99% 0.0 mm 0 W/m2
05:58 3.9 °C 3.8 °C 1014.8 hPa NNW 6.1 km/h 11.1 km/h 99% 0.0 mm 0 W/m2
06:03 3.9 °C 3.8 °C 1014.8 hPa NW 7.2 km/h 12.2 km/h 99% 0.0 mm 0 W/m2
06:08 4.0 °C 3.8 °C 1014.8 hPa NNW 6.1 km/h 12.2 km/h 99% 0.0 mm 0 W/m2
06:13 3.9 °C 3.8 °C 1014.8 hPa NNW 6.1 km/h 12.2 km/h 99% 0.0 mm 0 W/m2
06:18 3.9 °C 3.8 °C 1014.8 hPa NW 5.0 km/h 9.7 km/h 99% 0.0 mm 0 W/m2
06:35 3.9 °C 3.8 °C 1015.1 hPa NNW 6.1 km/h 11.1 km/h 99% 0.0 mm 0 W/m2
06:40 3.9 °C 3.8 °C 1015.1 hPa NNW 5.0 km/h 8.7 km/h 99% 0.0 mm 0 W/m2
06:45 3.9 °C 3.8 °C 1015.1 hPa NNW 6.1 km/h 9.7 km/h 99% 0.0 mm 0 W/m2
06:50 3.8 °C 3.7 °C 1015.1 hPa NNW 5.0 km/h 9.7 km/h 99% 0.0 mm 0 W/m2
06:55 3.8 °C 3.7 °C 1015.1 hPa NNW 3.5 km/h 9.7 km/h 99% 0.0 mm 0 W/m2
07:00 3.7 °C 3.6 °C 1015.1 hPa North 6.1 km/h 9.7 km/h 99% 0.0 mm 0 W/m2
07:05 3.6 °C 3.4 °C 1015.1 hPa NNW 6.1 km/h 9.7 km/h 99% 0.0 mm 0 W/m2
07:10 3.6 °C 3.4 °C 1015.1 hPa NNW 6.1 km/h 9.7 km/h 99% 0.0 mm 0 W/m2
07:15 3.5 °C 3.3 °C 1015.1 hPa NW 6.1 km/h 9.7 km/h 99% 0.0 mm 0 W/m2
07:20 3.5 °C 3.3 °C 1015.1 hPa NW 8.7 km/h 12.2 km/h 99% 0.0 mm 1 W/m2
07:25 3.4 °C 3.3 °C 1015.1 hPa NW 7.2 km/h 12.2 km/h 99% 0.0 mm 3 W/m2
07:30 3.4 °C 3.3 °C 1015.1 hPa NW 7.2 km/h 12.2 km/h 99% 0.0 mm 6 W/m2
07:35 3.4 °C 3.3 °C 1015.5 hPa NNW 7.2 km/h 11.1 km/h 99% 0.0 mm 9 W/m2
07:40 3.5 °C 3.3 °C 1015.5 hPa NNW 5.0 km/h 12.2 km/h 99% 0.0 mm 33 W/m2
07:45 3.8 °C 3.7 °C 1015.5 hPa NW 6.1 km/h 12.2 km/h 99% 0.0 mm 46 W/m2
07:50 4.0 °C 3.8 °C 1015.5 hPa NNW 6.1 km/h 11.1 km/h 99% 0.0 mm 60 W/m2
07:55 4.1 °C 3.9 °C 1015.5 hPa NNW 6.1 km/h 11.1 km/h 99% 0.0 mm 75 W/m2
08:00 4.3 °C 4.2 °C 1015.5 hPa NNW 8.7 km/h 11.1 km/h 99% 0.0 mm 87 W/m2
08:05 4.5 °C 4.3 °C 1015.5 hPa NNW 6.1 km/h 12.2 km/h 99% 0.0 mm 100 W/m2
08:10 4.7 °C 4.6 °C 1015.5 hPa NW 8.7 km/h 12.2 km/h 99% 0.3 mm 110 W/m2
08:15 4.7 °C 4.6 °C 1015.8 hPa NW 6.1 km/h 12.2 km/h 99% 0.3 mm 119 W/m2
08:20 5.0 °C 4.8 °C 1015.5 hPa NW 6.1 km/h 12.2 km/h 99% 0.3 mm 130 W/m2
08:26 5.2 °C 5.1 °C 1015.8 hPa NW 6.1 km/h 12.2 km/h 99% 0.3 mm 141 W/m2
08:31 5.4 °C 5.3 °C 1015.8 hPa NW 6.1 km/h 12.2 km/h 99% 0.3 mm 150 W/m2
08:36 5.6 °C 5.4 °C 1015.8 hPa NNW 7.2 km/h 12.2 km/h 99% 0.3 mm 160 W/m2
08:41 5.8 °C 5.7 °C 1015.8 hPa NW 8.7 km/h 12.2 km/h 99% 0.3 mm 175 W/m2
08:46 6.1 °C 5.8 °C 1015.5 hPa NNW 8.7 km/h 12.2 km/h 98% 0.3 mm 198 W/m2
08:51 6.4 °C 6.1 °C 1015.8 hPa NNW 6.1 km/h 14.8 km/h 98% 0.3 mm 232 W/m2
08:56 7.0 °C 6.6 °C 1015.8 hPa NNW 8.7 km/h 14.8 km/h 97% 0.3 mm 260 W/m2
09:01 7.4 °C 6.7 °C 1015.8 hPa NNW 8.7 km/h 13.4 km/h 95% 0.3 mm 204 W/m2
09:06 7.4 °C 6.2 °C 1015.8 hPa NNW 7.2 km/h 13.4 km/h 92% 0.3 mm 153 W/m2
09:11 7.2 °C 5.7 °C 1015.8 hPa NNW 11.1 km/h 14.8 km/h 90% 0.0 mm 160 W/m2
09:16 7.2 °C 5.3 °C 1015.8 hPa NNW 12.2 km/h 18.3 km/h 88% 0.0 mm 182 W/m2
09:21 7.4 °C 5.4 °C 1016.1 hPa NNW 6.1 km/h 18.3 km/h 87% 0.0 mm 197 W/m2
09:26 7.9 °C 5.7 °C 1016.1 hPa NNW 9.7 km/h 14.8 km/h 86% 0.0 mm 160 W/m2
09:31 8.1 °C 5.7 °C 1016.1 hPa NNW 9.7 km/h 14.8 km/h 85% 0.0 mm 182 W/m2
09:36 8.4 °C 6.0 °C 1015.8 hPa North 8.7 km/h 14.8 km/h 85% 0.0 mm 155 W/m2
09:41 8.5 °C 5.8 °C 1015.8 hPa NNW 8.7 km/h 13.4 km/h 83% 0.0 mm 143 W/m2
09:46 8.3 °C 5.4 °C 1016.1 hPa NNW 5.0 km/h 14.8 km/h 82% 0.0 mm 130 W/m2
09:51 8.3 °C 5.6 °C 1016.1 hPa NNW 9.7 km/h 14.8 km/h 83% 0.0 mm 123 W/m2
09:56 8.1 °C 5.4 °C 1016.1 hPa North 6.1 km/h 15.8 km/h 83% 0.0 mm 122 W/m2
10:01 8.2 °C 5.7 °C 1016.1 hPa NNW 6.1 km/h 15.8 km/h 84% 0.0 mm 118 W/m2
10:06 8.4 °C 5.8 °C 1016.1 hPa NNW 9.7 km/h 13.4 km/h 84% 0.0 mm 130 W/m2
10:11 8.6 °C 5.9 °C 1016.1 hPa North 7.2 km/h 14.8 km/h 83% 0.0 mm 130 W/m2
10:16 8.8 °C 6.1 °C 1016.1 hPa NNW 6.1 km/h 14.8 km/h 83% 0.0 mm 119 W/m2
10:21 8.9 °C 5.8 °C 1016.1 hPa NNW 9.7 km/h 13.4 km/h 81% 0.0 mm 113 W/m2
10:26 9.1 °C 6.0 °C 1016.1 hPa North 6.1 km/h 13.4 km/h 81% 0.0 mm 100 W/m2
10:31 9.4 °C 6.1 °C 1015.8 hPa North 6.1 km/h 13.4 km/h 80% 0.0 mm 93 W/m2
10:38 10.2 °C 6.6 °C 1016.1 hPa NNW 3.5 km/h 13.4 km/h 78% 0.0 mm 62 W/m2
10:43 10.8 °C 7.1 °C 1015.8 hPa NNW 11.1 km/h 13.4 km/h 78% 0.0 mm 55 W/m2
10:48 10.9 °C 6.7 °C 1015.8 hPa NW 8.7 km/h 13.4 km/h 75% 0.0 mm 54 W/m2
10:53 11.0 °C 6.6 °C 1016.1 hPa NNW 6.1 km/h 13.4 km/h 74% 0.0 mm 53 W/m2
10:58 11.0 °C 6.6 °C 1015.8 hPa NNW 7.2 km/h 13.4 km/h 74% 0.0 mm 52 W/m2
11:03 11.2 °C 6.7 °C 1016.1 hPa NNW 7.2 km/h 13.4 km/h 74% 0.0 mm 52 W/m2
11:08 11.4 °C 6.7 °C 1016.1 hPa NNW 7.2 km/h 11.1 km/h 73% 0.0 mm 52 W/m2
11:13 11.6 °C 6.7 °C 1016.1 hPa NNW 7.2 km/h 12.2 km/h 72% 0.0 mm 52 W/m2
11:18 11.7 °C 6.8 °C 1016.1 hPa NNW 7.2 km/h 12.2 km/h 72% 0.0 mm 51 W/m2
11:23 12.0 °C 6.9 °C 1016.1 hPa NNW 6.1 km/h 9.7 km/h 71% 0.0 mm 51 W/m2
11:28 12.4 °C 7.1 °C 1016.1 hPa North 5.0 km/h 9.7 km/h 70% 0.0 mm 50 W/m2
11:33 12.7 °C 7.2 °C 1016.1 hPa North 6.1 km/h 9.7 km/h 69% 0.0 mm 49 W/m2
11:38 12.8 °C 7.3 °C 1015.8 hPa NNW 9.7 km/h 12.2 km/h 69% 0.0 mm 49 W/m2
11:43 12.9 °C 7.2 °C 1015.8 hPa NNW 5.0 km/h 12.2 km/h 68% 0.0 mm 49 W/m2
11:48 13.5 °C 7.7 °C 1015.8 hPa NNW 3.5 km/h 12.2 km/h 68% 0.0 mm 58 W/m2
11:53 13.5 °C 7.3 °C 1015.8 hPa NNW 7.2 km/h 12.2 km/h 66% 0.0 mm 51 W/m2
11:58 13.4 °C 7.4 °C 1015.5 hPa NNW 6.1 km/h 12.2 km/h 67% 0.0 mm 57 W/m2
12:03 13.8 °C 7.6 °C 1015.5 hPa North 6.1 km/h 11.1 km/h 66% 0.0 mm 56 W/m2
12:08 14.2 °C 7.5 °C 1015.5 hPa North 7.2 km/h 11.1 km/h 64% 0.0 mm 54 W/m2
12:13 14.4 °C 7.9 °C 1015.5 hPa NNW 7.2 km/h 11.1 km/h 65% 0.0 mm 59 W/m2
12:18 14.4 °C 7.7 °C 1015.5 hPa NW 2.6 km/h 11.1 km/h 64% 0.0 mm 65 W/m2
12:23 15.2 °C 8.2 °C 1015.5 hPa NNW 3.5 km/h 11.1 km/h 63% 0.0 mm 57 W/m2
12:28 15.6 °C 7.9 °C 1015.5 hPa North 6.1 km/h 8.7 km/h 60% 0.0 mm 59 W/m2
12:33 15.6 °C 7.6 °C 1015.5 hPa NNW 6.1 km/h 9.7 km/h 59% 0.0 mm 57 W/m2
12:38 15.5 °C 7.6 °C 1015.1 hPa NNW 3.5 km/h 9.7 km/h 59% 0.0 mm 55 W/m2
12:43 16.0 °C 7.7 °C 1015.1 hPa NNW 2.6 km/h 9.7 km/h 58% 0.0 mm 55 W/m2
12:48 16.3 °C 7.8 °C 1015.1 hPa NW 2.6 km/h 7.2 km/h 57% 0.0 mm 55 W/m2
12:53 16.5 °C 7.7 °C 1015.1 hPa NW 5.0 km/h 7.2 km/h 56% 0.0 mm 55 W/m2
12:58 16.6 °C 7.8 °C 1014.8 hPa NNW 5.0 km/h 8.7 km/h 56% 0.0 mm 55 W/m2
13:03 16.6 °C 7.6 °C 1014.8 hPa NNE 3.5 km/h 8.7 km/h 55% 0.0 mm 55 W/m2
13:08 17.1 °C 7.4 °C 1014.8 hPa NNE 3.5 km/h 8.7 km/h 53% 0.0 mm 56 W/m2
13:13 16.8 °C 7.7 °C 1014.8 hPa NNE 3.5 km/h 11.1 km/h 55% 0.0 mm 57 W/m2
13:18 17.1 °C 8.0 °C 1014.8 hPa NNW 7.2 km/h 11.1 km/h 55% 0.0 mm 58 W/m2
13:23 16.9 °C 7.8 °C 1014.8 hPa NW 3.5 km/h 9.7 km/h 55% 0.0 mm 60 W/m2
13:28 17.2 °C 7.8 °C 1014.8 hPa NW 2.6 km/h 9.7 km/h 54% 0.0 mm 68 W/m2
13:33 17.7 °C 8.0 °C 1014.8 hPa West 1.1 km/h 7.2 km/h 53% 0.0 mm 76 W/m2
13:38 18.8 °C 8.7 °C 1014.8 hPa WNW 3.5 km/h 7.2 km/h 52% 0.0 mm 124 W/m2
13:43 19.1 °C 8.7 °C 1014.8 hPa North 3.5 km/h 7.2 km/h 51% 0.0 mm 97 W/m2
13:48 19.6 °C 8.9 °C 1014.8 hPa North 2.6 km/h 7.2 km/h 50% 0.0 mm 81 W/m2
13:53 19.5 °C 7.9 °C 1014.8 hPa SSW 3.5 km/h 7.2 km/h 47% 0.0 mm 82 W/m2
13:58 18.5 °C 7.3 °C 1014.4 hPa SSW 6.1 km/h 9.7 km/h 48% 0.0 mm 94 W/m2
14:03 17.8 °C 7.6 °C 1014.8 hPa SW 3.5 km/h 11.1 km/h 51% 0.0 mm 112 W/m2
14:08 17.7 °C 7.4 °C 1014.4 hPa SW 5.0 km/h 11.1 km/h 51% 0.0 mm 260 W/m2
14:13 17.7 °C 7.4 °C 1014.8 hPa SW 6.1 km/h 9.7 km/h 51% 0.0 mm 317 W/m2
14:18 17.6 °C 7.3 °C 1014.4 hPa SW 3.5 km/h 9.7 km/h 51% 0.0 mm 307 W/m2
14:23 17.8 °C 7.6 °C 1014.8 hPa SW 3.5 km/h 9.7 km/h 51% 0.0 mm 220 W/m2
14:28 17.4 °C 7.2 °C 1014.4 hPa SW 3.5 km/h 11.1 km/h 51% 0.0 mm 242 W/m2
14:33 16.9 °C 7.3 °C 1014.4 hPa SSW 6.1 km/h 11.1 km/h 53% 0.0 mm 95 W/m2
14:38 16.0 °C 6.7 °C 1014.4 hPa SSW 5.0 km/h 8.7 km/h 54% 0.0 mm 136 W/m2
14:43 16.1 °C 7.1 °C 1014.4 hPa SW 3.5 km/h 8.7 km/h 55% 0.0 mm 106 W/m2
14:48 15.6 °C 6.8 °C 1014.4 hPa SW 5.0 km/h 8.7 km/h 56% 0.0 mm 72 W/m2
14:53 15.0 °C 6.8 °C 1014.8 hPa SSW 2.6 km/h 8.7 km/h 58% 0.0 mm 73 W/m2
14:58 14.7 °C 7.5 °C 1014.4 hPa SW 3.5 km/h 7.2 km/h 62% 0.0 mm 82 W/m2
15:03 14.7 °C 7.5 °C 1014.4 hPa SSW 3.5 km/h 6.1 km/h 62% 0.0 mm 178 W/m2
15:08 15.5 °C 7.8 °C 1014.8 hPa SSW 1.1 km/h 6.1 km/h 60% 0.0 mm 185 W/m2
15:13 16.4 °C 7.6 °C 1014.8 hPa SSW 3.5 km/h 7.2 km/h 56% 0.0 mm 198 W/m2
15:18 17.0 °C 7.9 °C 1014.8 hPa SW 6.1 km/h 7.2 km/h 55% 0.0 mm 168 W/m2
15:23 16.9 °C 7.6 °C 1014.8 hPa SW 3.5 km/h 7.2 km/h 54% 0.0 mm 185 W/m2
15:28 16.9 °C 7.3 °C 1014.8 hPa SW 6.1 km/h 9.7 km/h 53% 0.0 mm 177 W/m2
15:33 16.4 °C 7.1 °C 1014.8 hPa SW 5.0 km/h 11.1 km/h 54% 0.0 mm 180 W/m2
15:38 16.4 °C 7.1 °C 1015.1 hPa SSW 5.0 km/h 11.1 km/h 54% 0.0 mm 170 W/m2
15:43 16.5 °C 7.2 °C 1014.8 hPa SSW 5.0 km/h 11.1 km/h 54% 0.0 mm 143 W/m2
15:48 16.6 °C 7.6 °C 1014.8 hPa SW 3.5 km/h 11.1 km/h 55% 0.0 mm 124 W/m2
15:53 16.5 °C 7.7 °C 1014.8 hPa SW 5.0 km/h 8.7 km/h 56% 0.0 mm 63 W/m2
15:58 15.4 °C 7.2 °C 1015.1 hPa SW 3.5 km/h 7.2 km/h 58% 0.0 mm 94 W/m2
16:03 15.4 °C 7.9 °C 1014.8 hPa SW 2.6 km/h 7.2 km/h 61% 0.0 mm 86 W/m2
16:08 16.0 °C 8.0 °C 1014.8 hPa WSW 5.0 km/h 8.7 km/h 59% 0.0 mm 69 W/m2
16:13 15.6 °C 7.9 °C 1014.8 hPa SW 3.5 km/h 8.7 km/h 60% 0.0 mm 56 W/m2
16:18 15.4 °C 7.9 °C 1014.8 hPa SW 5.0 km/h 8.7 km/h 61% 0.0 mm 42 W/m2
16:23 15.3 °C 8.3 °C 1014.8 hPa SW 2.6 km/h 6.1 km/h 63% 0.0 mm 32 W/m2
16:28 15.1 °C 8.1 °C 1014.8 hPa SW 3.5 km/h 6.1 km/h 63% 0.0 mm 26 W/m2
16:33 14.6 °C 7.9 °C 1014.8 hPa SW 1.1 km/h 5.0 km/h 64% 0.0 mm 15 W/m2
16:38 14.0 °C 7.6 °C 1014.8 hPa SW 2.6 km/h 5.0 km/h 65% 0.0 mm 13 W/m2
16:43 13.8 °C 7.8 °C 1014.8 hPa SW 2.6 km/h 5.0 km/h 67% 0.0 mm 8 W/m2
16:48 13.1 °C 7.3 °C 1014.8 hPa WSW 1.1 km/h 5.0 km/h 68% 0.0 mm 5 W/m2
16:53 12.5 °C 7.4 °C 1014.8 hPa Calm   5.0 km/h 71% 0.0 mm 3 W/m2
16:58 12.1 °C 7.0 °C 1014.8 hPa Calm   2.6 km/h 71% 0.0 mm 1 W/m2
17:03 11.7 °C 7.0 °C 1015.1 hPa Calm   1.1 km/h 73% 0.0 mm 0 W/m2
17:08 11.2 °C 6.6 °C 1015.1 hPa West 1.1 km/h 2.6 km/h 73% 0.0 mm 0 W/m2
17:13 10.9 °C 6.7 °C 1015.1 hPa Calm   2.6 km/h 75% 0.0 mm 0 W/m2
17:18 10.7 °C 6.7 °C 1015.1 hPa Calm   2.6 km/h 76% 0.0 mm 0 W/m2
17:23 10.5 °C 6.7 °C 1015.1 hPa Calm   2.6 km/h 77% 0.0 mm 0 W/m2
17:28 10.3 °C 7.0 °C 1015.5 hPa North 2.6 km/h 3.5 km/h 80% 0.0 mm 0 W/m2
17:33 10.1 °C 7.3 °C 1015.5 hPa North 2.6 km/h 5.0 km/h 83% 0.0 mm 0 W/m2
17:38 10.0 °C 7.4 °C 1015.1 hPa North 2.6 km/h 5.0 km/h 84% 0.0 mm 0 W/m2
17:48 9.8 °C 7.6 °C 1015.5 hPa NNW 2.6 km/h 5.0 km/h 86% 0.0 mm 0 W/m2
17:53 9.5 °C 7.3 °C 1015.5 hPa NW 1.1 km/h 5.0 km/h 86% 0.0 mm 0 W/m2
17:58 9.4 °C 7.2 °C 1015.5 hPa NNW 1.1 km/h 3.5 km/h 86% 0.0 mm 0 W/m2
18:03 9.4 °C 7.3 °C 1015.5 hPa North 1.1 km/h 3.5 km/h 87% 0.0 mm 0 W/m2
18:08 9.3 °C 7.2 °C 1015.8 hPa North 1.1 km/h 3.5 km/h 87% 0.0 mm 0 W/m2
18:25 9.2 °C 7.3 °C 1015.8 hPa North 3.5 km/h 5.0 km/h 88% 0.0 mm 0 W/m2
18:30 9.3 °C 7.6 °C 1016.1 hPa North 2.6 km/h 5.0 km/h 89% 0.0 mm 0 W/m2
18:35 9.3 °C 7.6 °C 1016.1 hPa North 2.6 km/h 5.0 km/h 89% 0.0 mm 0 W/m2
18:40 9.2 °C 7.5 °C 1016.1 hPa North 1.1 km/h 5.0 km/h 89% 0.0 mm 0 W/m2
18:45 9.1 °C 7.6 °C 1016.1 hPa North 5.0 km/h 6.1 km/h 90% 0.0 mm 0 W/m2
18:50 9.0 °C 7.4 °C 1016.1 hPa North 1.1 km/h 6.1 km/h 90% 0.0 mm 0 W/m2
18:55 8.9 °C 7.5 °C 1016.1 hPa Calm   6.1 km/h 91% 0.0 mm 0 W/m2
19:00 8.9 °C 7.5 °C 1016.1 hPa North 1.1 km/h 5.0 km/h 91% 0.0 mm 0 W/m2
19:05 9.2 °C 7.8 °C 1016.5 hPa NW 2.6 km/h 6.1 km/h 91% 0.0 mm 0 W/m2
19:10 9.4 °C 8.0 °C 1016.5 hPa West 5.0 km/h 11.1 km/h 91% 0.0 mm 0 W/m2
19:15 10.0 °C 8.4 °C 1016.5 hPa WSW 5.0 km/h 11.1 km/h 90% 0.0 mm 0 W/m2
19:20 10.8 °C 8.7 °C 1016.5 hPa WSW 5.0 km/h 12.2 km/h 87% 0.0 mm 0 W/m2
19:25 11.3 °C 8.5 °C 1016.8 hPa WSW 6.1 km/h 12.2 km/h 83% 0.0 mm 0 W/m2
19:30 11.6 °C 8.3 °C 1016.8 hPa West 6.1 km/h 13.4 km/h 80% 0.0 mm 0 W/m2
19:35 11.7 °C 8.0 °C 1016.8 hPa West 7.2 km/h 13.4 km/h 78% 0.0 mm 0 W/m2
19:40 11.7 °C 7.8 °C 1016.8 hPa West 7.2 km/h 11.1 km/h 77% 0.0 mm 0 W/m2
19:45 11.7 °C 7.4 °C 1016.8 hPa WSW 7.2 km/h 17.2 km/h 75% 0.0 mm 0 W/m2
19:50 11.7 °C 7.4 °C 1016.8 hPa WSW 7.2 km/h 17.2 km/h 75% 0.0 mm 0 W/m2
19:55 11.8 °C 7.3 °C 1016.8 hPa WSW 7.2 km/h 14.8 km/h 74% 0.0 mm 0 W/m2
20:00 11.9 °C 7.2 °C 1017.2 hPa West 11.1 km/h 19.5 km/h 73% 0.0 mm 0 W/m2
20:06 12.0 °C 6.9 °C 1017.2 hPa WSW 7.2 km/h 19.5 km/h 71% 0.0 mm 0 W/m2
20:11 11.9 °C 7.0 °C 1017.2 hPa WSW 6.1 km/h 19.5 km/h 72% 0.0 mm 0 W/m2
20:16 12.0 °C 6.7 °C 1017.2 hPa West 11.1 km/h 27.0 km/h 70% 0.0 mm 0 W/m2
20:21 12.2 °C 6.7 °C 1017.2 hPa WSW 15.8 km/h 33.1 km/h 69% 0.0 mm 0 W/m2
20:26 12.2 °C 6.7 °C 1017.2 hPa WSW 13.4 km/h 33.1 km/h 69% 0.0 mm 0 W/m2
20:31 12.1 °C 6.8 °C 1017.2 hPa WSW 9.7 km/h 23.3 km/h 70% 0.0 mm 0 W/m2
20:36 12.0 °C 6.5 °C 1017.5 hPa WSW 19.5 km/h 25.6 km/h 69% 0.0 mm 0 W/m2
20:41 12.0 °C 6.7 °C 1017.5 hPa WSW 18.3 km/h 27.0 km/h 70% 0.0 mm 0 W/m2
20:46 12.0 °C 6.5 °C 1017.5 hPa WSW 14.8 km/h 29.4 km/h 69% 0.0 mm 0 W/m2
20:51 11.9 °C 6.8 °C 1017.8 hPa SW 11.1 km/h 30.6 km/h 71% 0.0 mm 0 W/m2
20:56 11.8 °C 6.7 °C 1017.5 hPa WSW 11.1 km/h 30.6 km/h 71% 0.0 mm 0 W/m2
21:01 11.7 °C 6.6 °C 1017.8 hPa SW 13.4 km/h 29.4 km/h 71% 0.0 mm 0 W/m2
21:06 11.6 °C 6.5 °C 1017.8 hPa SW 13.4 km/h 31.7 km/h 71% 0.0 mm 0 W/m2
21:11 11.5 °C 6.6 °C 1017.5 hPa SW 11.1 km/h 31.7 km/h 72% 0.0 mm 0 W/m2
21:16 11.5 °C 6.4 °C 1017.8 hPa WSW 11.1 km/h 25.6 km/h 71% 0.0 mm 0 W/m2
21:21 11.4 °C 6.6 °C 1017.8 hPa WSW 18.3 km/h 24.5 km/h 72% 0.0 mm 0 W/m2
21:26 11.3 °C 6.4 °C 1017.8 hPa WSW 7.2 km/h 23.3 km/h 72% 0.0 mm 0 W/m2
21:31 11.3 °C 6.4 °C 1017.8 hPa WSW 11.1 km/h 23.3 km/h 72% 0.0 mm 0 W/m2
21:36 11.4 °C 6.6 °C 1017.8 hPa WSW 19.5 km/h 21.9 km/h 72% 0.0 mm 0 W/m2
21:41 11.4 °C 6.6 °C 1017.8 hPa WSW 12.2 km/h 21.9 km/h 72% 0.0 mm 0 W/m2
21:46 11.3 °C 6.4 °C 1017.8 hPa WSW 11.1 km/h 21.9 km/h 72% 0.0 mm 0 W/m2
21:51 11.4 °C 6.1 °C 1017.8 hPa WSW 12.2 km/h 27.0 km/h 70% 0.0 mm 0 W/m2
21:56 11.4 °C 6.1 °C 1017.8 hPa WSW 6.1 km/h 27.0 km/h 70% 0.0 mm 0 W/m2
22:01 11.3 °C 6.1 °C 1017.8 hPa West 14.8 km/h 20.9 km/h 70% 0.0 mm 0 W/m2
22:06 11.3 °C 6.2 °C 1017.8 hPa West 13.4 km/h 20.9 km/h 71% 0.0 mm 0 W/m2
22:11 11.3 °C 6.4 °C 1017.8 hPa West 12.2 km/h 28.0 km/h 72% 0.0 mm 0 W/m2
22:16 11.4 °C 6.6 °C 1017.8 hPa West 11.1 km/h 28.0 km/h 72% 0.0 mm 0 W/m2
22:21 11.5 °C 6.6 °C 1017.8 hPa WSW 11.1 km/h 31.7 km/h 72% 0.0 mm 0 W/m2
22:26 11.5 °C 6.6 °C 1017.8 hPa WSW 18.3 km/h 31.7 km/h 72% 0.0 mm 0 W/m2
22:31 11.5 °C 6.4 °C 1018.2 hPa WSW 17.2 km/h 34.3 km/h 71% 0.0 mm 0 W/m2
22:36 11.5 °C 6.4 °C 1018.2 hPa WSW 6.1 km/h 34.3 km/h 71% 0.0 mm 0 W/m2
22:41 11.5 °C 6.2 °C 1018.2 hPa West 11.1 km/h 24.5 km/h 70% 0.0 mm 0 W/m2
22:46 11.5 °C 6.0 °C 1018.2 hPa West 7.2 km/h 21.9 km/h 69% 0.0 mm 0 W/m2
22:51 11.4 °C 5.7 °C 1018.2 hPa West 13.4 km/h 20.9 km/h 68% 0.0 mm 0 W/m2
22:56 11.4 °C 5.3 °C 1017.8 hPa West 12.2 km/h 25.6 km/h 66% 0.0 mm 0 W/m2
23:01 11.4 °C 5.1 °C 1018.2 hPa WSW 9.7 km/h 25.6 km/h 65% 0.0 mm 0 W/m2
23:06 11.3 °C 4.9 °C 1018.2 hPa WSW 15.8 km/h 24.5 km/h 65% 0.0 mm 0 W/m2
23:11 11.4 °C 4.8 °C 1018.2 hPa WSW 18.3 km/h 27.0 km/h 64% 0.0 mm 0 W/m2
23:16 11.4 °C 4.8 °C 1018.2 hPa WSW 6.1 km/h 27.0 km/h 64% 0.0 mm 0 W/m2
23:21 11.4 °C 4.8 °C 1018.2 hPa WSW 13.4 km/h 27.0 km/h 64% 0.0 mm 0 W/m2
23:26 11.3 °C 4.5 °C 1018.2 hPa West 11.1 km/h 20.9 km/h 63% 0.0 mm 0 W/m2
23:31 11.3 °C 4.5 °C 1018.2 hPa West 11.1 km/h 21.9 km/h 63% 0.0 mm 0 W/m2
23:36 11.3 °C 4.5 °C 1018.2 hPa West 17.2 km/h 24.5 km/h 63% 0.0 mm 0 W/m2
23:42 11.3 °C 5.2 °C 1018.2 hPa West 20.9 km/h 30.6 km/h 66% 0.0 mm 0 W/m2
23:47 11.5 °C 5.6 °C 1018.2 hPa West 20.9 km/h 30.6 km/h 67% 0.0 mm 0 W/m2
23:52 11.6 °C 5.7 °C 1018.5 hPa WSW 27.0 km/h 35.6 km/h 67% 0.0 mm 0 W/m2
23:57 11.6 °C 6.1 °C 1018.5 hPa WSW 19.5 km/h 35.6 km/h 69% 0.0 mm 0 W/m2
Northern Hawkes Bay. New Zealand Historic Data
Compliments of Weather Underground - 2.25 mb